Flight Track Log - Related Links

Times and Time Zones

All times are in EDT time to prevent confusion due to time zone crossing. See the AAL1862 flight status page for this flight to view local times or setup timezone preferences in your user account.

Time Position Orientation Groundspeed Altitude Reporting Facility
EDT Latitude Longitude Course Direction KTS MPH feet Rate Location/Type
Tue 07:49:27 AM 32.8833 -97.0333 357° North 147 169 1,900  Level Dallas / Fort Worth TRACON
Tue 07:51:00 AM 32.8583 -96.8000 North  Level FlightAware Approximate
Tue 07:51:03 AM 32.8000 -97.0000 161° South 241 277 6,400  Level Dallas / Fort Worth TRACON
Tue 07:52:00 AM 32.9794 -96.8000 North  Level FlightAware Approximate
Tue 07:52:42 AM 32.7614 -96.8847 112° Southeast 221 254 10,200  Level Fort Worth Center
Tue 07:53:00 AM 33.1004 -96.8024 357° North  Level FlightAware Approximate
Tue 07:53:42 AM 32.8300 -96.8150 40° Northeast 265 305 12,800  Level Fort Worth Center
Tue 07:54:00 AM 33.2213 -96.8110 357° North  Level FlightAware Approximate
Tue 07:54:42 AM 32.9239 -96.8069 North 313 360 14,500  Level Fort Worth Center
Tue 07:55:42 AM 33.0469 -96.8136 357° North 370 426 17,600 2,800 Climbing Fort Worth Center
Tue 07:56:42 AM 33.1533 -96.8156 359° North 411 473 20,100 2,500 Climbing Fort Worth Center
Tue 07:57:42 AM 33.2892 -96.8194 359° North 432 497 22,600 2,200 Climbing Fort Worth Center
Tue 07:58:42 AM 33.4019 -96.8189 360° North 445 512 24,500 2,150 Climbing Fort Worth Center
Tue 07:59:42 AM 33.5078 -96.7133 40° Northeast 419 482 26,900 2,350 Climbing Fort Worth Center
Tue 08:00:42 AM 33.5969 -96.6281 39° Northeast 443 510 29,200 2,000 Climbing Fort Worth Center
Tue 08:01:42 AM 33.7028 -96.5444 33° Northeast 454 522 30,900 1,800 Climbing Fort Worth Center
Tue 08:02:42 AM 33.8150 -96.4486 35° Northeast 454 522 32,800 1,600 Climbing Fort Worth Center
Tue 08:03:42 AM 33.9144 -96.3697 33° Northeast 438 504 34,100 1,150 Climbing Fort Worth Center
Tue 08:04:42 AM 34.0181 -96.2833 35° Northeast 443 510 35,100 1,050 Climbing Fort Worth Center
Tue 08:05:42 AM 34.1217 -96.1942 35° Northeast 448 516 36,200 950 Climbing Fort Worth Center
Tue 08:06:42 AM 34.2272 -96.1097 33° Northeast 448 516 37,000 400 Climbing Fort Worth Center
Tue 08:07:42 AM 34.3283 -96.0253 35° Northeast 448 516 37,000  Level Fort Worth Center
Tue 08:08:42 AM 34.4319 -95.9406 34° Northeast 448 516 37,000  Level Fort Worth Center
Tue 08:09:42 AM 34.5331 -95.8556 35° Northeast 448 516 37,000  Level Fort Worth Center
Tue 08:10:42 AM 34.6342 -95.7706 35° Northeast 448 516 37,000  Level Fort Worth Center
Tue 08:11:42 AM 34.7394 -95.6825 34° Northeast 448 516 37,000  Level Fort Worth Center
Tue 08:12:42 AM 34.8425 -95.5944 35° Northeast 448 516 37,000  Level Fort Worth Center
Tue 08:13:42 AM 34.9475 -95.5036 35° Northeast 448 516 37,000  Level Fort Worth Center
Tue 08:14:42 AM 35.0483 -95.4150 36° Northeast 448 516 37,000  Level Fort Worth Center
Tue 08:15:42 AM 35.1511 -95.3289 34° Northeast 443 510 37,000  Level Fort Worth Center
Tue 08:16:45 AM 35.2453 -95.2486 35° Northeast 443 510 37,000  Level Memphis Center
Tue 08:17:45 AM 35.3447 -95.1578 37° Northeast 458 527 37,000  Level Memphis Center
Tue 08:18:45 AM 35.4481 -95.0719 34° Northeast 458 527 37,000  Level Memphis Center
Tue 08:19:45 AM 35.5472 -94.9831 36° Northeast 452 520 37,000  Level Memphis Center
Tue 08:20:45 AM 35.6489 -94.8892 37° Northeast 447 514 37,000  Level Memphis Center
Tue 08:21:45 AM 35.7522 -94.8003 35° Northeast 447 514 37,000  Level Memphis Center
Tue 08:22:45 AM 35.8514 -94.7083 37° Northeast 447 514 37,000  Level Memphis Center
Tue 08:23:45 AM 35.9544 -94.6189 35° Northeast 447 514 37,000  Level Memphis Center
Tue 08:24:45 AM 36.0556 -94.5292 36° Northeast 447 514 37,000  Level Memphis Center
Tue 08:27:00 AM 36.2764 -94.3278 36° Northeast 444 511 37,000  Level Kansas City Center
Tue 08:28:01 AM 36.3756 -94.2372 36° Northeast 444 511 37,000  Level Kansas City Center
Tue 08:29:03 AM 36.4942 -94.1303 36° Northeast 441 507 37,000  Level Kansas City Center
Tue 08:30:04 AM 36.5928 -94.0408 36° Northeast 439 505 37,000  Level Kansas City Center
Tue 08:31:05 AM 36.6911 -93.9494 37° Northeast 440 506 37,000  Level Kansas City Center
Tue 08:32:07 AM 36.7889 -93.8603 36° Northeast 437 503 37,000  Level Kansas City Center
Tue 08:33:08 AM 36.8939 -93.7647 36° Northeast 438 504 37,000  Level Kansas City Center
Tue 08:34:10 AM 36.9903 -93.6731 37° Northeast 436 502 37,000  Level Kansas City Center
Tue 08:35:11 AM 37.0867 -93.5817 37° Northeast 434 499 37,000  Level Kansas City Center
Tue 08:36:13 AM 37.1850 -93.4933 36° Northeast 433 498 37,000  Level Kansas City Center
Tue 08:37:15 AM 37.2803 -93.4050 36° Northeast 428 493 37,000  Level Kansas City Center
Tue 08:38:16 AM 37.3769 -93.3142 37° Northeast 429 494 37,000  Level Kansas City Center
Tue 08:39:18 AM 37.4617 -93.2083 45° Northeast 428 493 37,000  Level Kansas City Center
Tue 08:40:19 AM 37.5503 -93.1056 43° Northeast 430 495 37,000 -146 Level Kansas City Center
Tue 08:41:21 AM 37.6392 -93.0050 42° Northeast 428 493 36,700 -726 Descending Kansas City Center
Tue 08:42:23 AM 37.7422 -92.8800 44° Northeast 426 490 35,500 -1,073 Descending Kansas City Center
Tue 08:43:24 AM 37.8283 -92.7789 43° Northeast 420 483 34,500 -1,073 Descending Kansas City Center
Tue 08:44:26 AM 37.9108 -92.6817 43° Northeast 425 489 33,300 -2,098 Descending Kansas City Center
Tue 08:45:27 AM 37.9992 -92.5761 43° Northeast 435 501 30,200 -2,927 Descending Kansas City Center
Tue 08:46:29 AM 38.0911 -92.4675 43° Northeast 447 514 27,300 -3,242 Descending Kansas City Center
Tue 08:47:31 AM 38.1972 -92.3417 43° Northeast 458 527 23,500 -2,585 Descending Kansas City Center
Tue 08:48:32 AM 38.2664 -92.2006 58° Northeast 467 537 22,000 -1,220 Descending Kansas City Center
Tue 08:49:34 AM 38.3264 -92.0544 62° Northeast 464 534 21,000 -968 Descending Kansas City Center
Tue 08:50:36 AM 38.3883 -91.9117 61° Northeast 460 529 20,000 -1,220 Descending Kansas City Center
Tue 08:51:37 AM 38.4489 -91.7700 61° Northeast 454 522 18,500 -2,098 Descending Kansas City Center
Tue 08:52:39 AM 38.5072 -91.6378 61° Northeast 434 499 15,700 -2,878 Descending Kansas City Center
Tue 08:53:40 AM 38.5608 -91.5117 61° Northeast 410 472 12,600 -2,293 Descending Kansas City Center
Tue 08:54:42 AM 38.6239 -91.3631 61° Northeast 397 457 11,000 -774 Descending Kansas City Center
Tue 08:55:44 AM 38.6683 -91.2625 60° Northeast 395 455 11,000 -293 Level Kansas City Center
Tue 08:56:45 AM 38.6931 -91.1111 78° East 357 411 10,400 -732 Descending Kansas City Center
Tue 08:57:47 AM 38.6936 -91.0003 90° East 329 379 9,500 -1,220 Descending Kansas City Center
Tue 08:58:48 AM 38.7222 -90.9081 68° East 303 349 7,900 -1,707 Descending Kansas City Center
Tue 08:59:50 AM 38.7575 -90.8133 64° Northeast 296 341 6,000 -1,694 Descending Kansas City Center
Tue 09:00:52 AM 38.7928 -90.7194 64° Northeast 293 337 4,400 -1,548 Descending Kansas City Center

Login

Don't have an account? Register now (free) for customized features, flight alerts, and more!